createdAt,value
2016-04-24T00:00:21.671Z,0
2016-04-24T00:01:21.642Z,0
2016-04-24T00:02:21.630Z,0
2016-04-24T00:03:21.601Z,0
2016-04-24T00:04:22.525Z,0
2016-04-24T00:05:21.575Z,0
2016-04-24T00:06:21.547Z,0
2016-04-24T00:07:22.002Z,0
2016-04-24T00:08:21.522Z,0
2016-04-24T00:09:21.508Z,0
2016-04-24T00:10:21.479Z,0
2016-04-24T00:11:21.467Z,0
2016-04-24T00:12:21.453Z,0
2016-04-24T00:13:21.627Z,0
2016-04-24T00:14:21.413Z,0
2016-04-24T00:15:21.383Z,0
2016-04-24T00:16:21.371Z,0
2016-04-24T00:17:21.373Z,0
2016-04-24T00:18:21.360Z,0
2016-04-24T00:19:21.316Z,0
2016-04-24T00:20:21.287Z,0
2016-04-24T00:21:21.274Z,0
2016-04-24T00:22:21.480Z,0
2016-04-24T00:23:21.248Z,0
2016-04-24T00:24:21.236Z,0
2016-04-24T00:25:21.207Z,0
2016-04-24T00:26:21.397Z,0
2016-04-24T00:27:21.166Z,0
2016-04-24T00:28:21.153Z,0
2016-04-24T00:29:21.436Z,0
2016-04-24T00:30:21.112Z,0
2016-04-24T00:31:22.645Z,0
2016-04-24T00:32:21.148Z,0
2016-04-24T00:33:21.306Z,0
2016-04-24T00:34:21.044Z,0
2016-04-24T00:35:21.015Z,0
2016-04-24T00:36:22.111Z,0
2016-04-24T00:37:20.786Z,0
2016-04-24T00:38:20.961Z,0
2016-04-24T00:39:20.947Z,0
2016-04-24T00:40:20.779Z,0
2016-04-24T00:41:20.922Z,0
2016-04-24T00:42:20.893Z,0
2016-04-24T00:43:20.881Z,0
2016-04-24T00:44:20.868Z,0
2016-04-24T00:45:20.838Z,0
2016-04-24T00:46:25.702Z,0
2016-04-24T00:47:20.797Z,0
2016-04-24T00:48:21.535Z,0
2016-04-24T00:49:20.771Z,0
2016-04-24T00:50:20.743Z,0
2016-04-24T00:51:21.433Z,0
2016-04-24T00:52:21.123Z,0
2016-04-24T00:53:20.688Z,0
2016-04-24T00:54:20.676Z,0
2016-04-24T00:55:20.662Z,0
2016-04-24T00:56:20.651Z,0
2016-04-24T00:57:20.621Z,0
2016-04-24T00:58:20.608Z,0
2016-04-24T00:59:20.596Z,0
2016-04-24T01:00:20.567Z,0
2016-04-24T01:01:20.553Z,0
2016-04-24T01:02:20.526Z,0
2016-04-24T01:03:20.731Z,0
2016-04-24T01:04:20.500Z,0
2016-04-24T01:05:20.315Z,0
2016-04-24T01:06:20.473Z,0
2016-04-24T01:07:20.320Z,0
2016-04-24T01:08:20.416Z,0
2016-04-24T01:09:20.419Z,0
2016-04-24T01:10:20.406Z,0
2016-04-24T01:11:20.783Z,0
2016-04-24T01:12:20.350Z,0
2016-04-24T01:13:20.336Z,0
2016-04-24T01:14:20.323Z,0
2016-04-24T01:15:20.311Z,0
2016-04-24T01:16:20.282Z,0
2016-04-24T01:17:20.284Z,0
2016-04-24T01:18:20.256Z,0
2016-04-24T01:19:20.243Z,0
2016-04-24T01:20:20.230Z,0
2016-04-24T01:21:20.202Z,0
2016-04-24T01:22:20.438Z,0
2016-04-24T01:23:20.225Z,0
2016-04-24T01:24:20.164Z,0
2016-04-24T01:25:20.136Z,0
2016-04-24T01:26:20.123Z,0
2016-04-24T01:27:20.125Z,0
2016-04-24T01:28:20.082Z,0
2016-04-24T01:29:20.069Z,0
2016-04-24T01:30:20.056Z,0
2016-04-24T01:31:20.043Z,0
2016-04-24T01:32:20.014Z,0
2016-04-24T01:33:20.002Z,0
2016-04-24T01:34:19.972Z,0
2016-04-24T01:35:19.960Z,0
2016-04-24T01:36:19.978Z,0
2016-04-24T01:37:19.950Z,0
2016-04-24T01:38:20.265Z,0
2016-04-24T01:39:19.893Z,0
2016-04-24T01:40:19.863Z,0
2016-04-24T01:41:19.866Z,0
2016-04-24T01:42:19.838Z,0
2016-04-24T01:43:19.824Z,0
2016-04-24T01:44:19.813Z,0
2016-04-24T01:45:19.784Z,0
2016-04-24T01:46:19.771Z,0
2016-04-24T01:47:19.758Z,0
2016-04-24T01:48:19.745Z,0
2016-04-24T01:49:19.732Z,0
2016-04-24T01:50:19.703Z,0
2016-04-24T01:51:19.690Z,0
2016-04-24T01:52:20.771Z,0
2016-04-24T01:53:19.696Z,0
2016-04-24T01:54:19.670Z,0
2016-04-24T01:55:19.681Z,0
2016-04-24T01:56:19.724Z,0
2016-04-24T01:57:19.752Z,0
2016-04-24T01:58:19.780Z,0
2016-04-24T01:59:19.769Z,0
2016-04-24T02:00:19.771Z,0
2016-04-24T02:01:19.773Z,0
2016-04-24T02:02:19.759Z,0
2016-04-24T02:03:19.761Z,0
2016-04-24T02:04:19.785Z,0
2016-04-24T02:05:19.748Z,0
2016-04-24T02:06:19.739Z,0
2016-04-24T02:07:19.731Z,0
2016-04-24T02:08:19.864Z,0
2016-04-24T02:09:19.682Z,0
2016-04-24T02:10:19.671Z,0
2016-04-24T02:11:19.645Z,0
2016-04-24T02:12:19.649Z,0
2016-04-24T02:13:19.623Z,0
2016-04-24T02:14:19.627Z,0
2016-04-24T02:15:19.598Z,0
2016-04-24T02:16:19.570Z,0
2016-04-24T02:17:19.542Z,0
2016-04-24T02:18:19.545Z,0
2016-04-24T02:19:19.531Z,0
2016-04-24T02:20:19.504Z,0
2016-04-24T02:21:19.491Z,0
2016-04-24T02:22:19.823Z,0
2016-04-24T02:23:19.997Z,0
2016-04-24T02:24:19.422Z,0
2016-04-24T02:25:19.441Z,0
2016-04-24T02:26:19.396Z,0
2016-04-24T02:27:19.383Z,0
2016-04-24T02:28:19.355Z,0
2016-04-24T02:29:19.342Z,0
2016-04-24T02:30:19.313Z,0
2016-04-24T02:31:19.301Z,0
2016-04-24T02:32:19.287Z,0
2016-04-24T02:33:19.274Z,0
2016-04-24T02:34:19.262Z,0
2016-04-24T02:35:19.233Z,0
2016-04-24T02:36:19.220Z,0
2016-04-24T02:37:19.926Z,0
2016-04-24T02:38:20.397Z,0
2016-04-24T02:39:19.166Z,0
2016-04-24T02:40:20.418Z,0
2016-04-24T02:41:19.140Z,0
2016-04-24T02:42:19.111Z,0
2016-04-24T02:43:19.130Z,0
2016-04-24T02:44:19.069Z,0
2016-04-24T02:45:19.056Z,0
2016-04-24T02:46:19.028Z,0
2016-04-24T02:47:19.016Z,0
2016-04-24T02:48:19.003Z,0
2016-04-24T02:49:18.989Z,0
2016-04-24T02:50:18.961Z,0
2016-04-24T02:51:18.963Z,0
2016-04-24T02:52:19.888Z,0
2016-04-24T02:53:18.625Z,0
2016-04-24T02:54:18.909Z,0
2016-04-24T02:55:18.881Z,0
2016-04-24T02:56:18.868Z,0
2016-04-24T02:57:18.838Z,0
2016-04-24T02:58:18.810Z,0
2016-04-24T02:59:18.813Z,0
2016-04-24T03:00:18.785Z,0
2016-04-24T03:01:18.787Z,0
2016-04-24T03:02:18.743Z,0
2016-04-24T03:03:18.745Z,0
2016-04-24T03:04:18.701Z,0
2016-04-24T03:05:18.689Z,0
2016-04-24T03:06:18.675Z,0
2016-04-24T03:07:19.210Z,0
2016-04-24T03:08:19.759Z,0
2016-04-24T03:09:18.621Z,0
2016-04-24T03:10:18.609Z,0
2016-04-24T03:11:18.580Z,0
2016-04-24T03:12:18.567Z,0
2016-04-24T03:13:18.539Z,0
2016-04-24T03:14:18.525Z,0
2016-04-24T03:15:18.512Z,0
2016-04-24T03:16:18.500Z,0
2016-04-24T03:17:18.487Z,0
2016-04-24T03:18:18.442Z,0
2016-04-24T03:19:18.445Z,0
2016-04-24T03:20:18.417Z,0
2016-04-24T03:21:18.403Z,0
2016-04-24T03:22:18.391Z,0
2016-04-24T03:23:18.377Z,0
2016-04-24T03:24:17.599Z,0
2016-04-24T03:25:18.336Z,0
2016-04-24T03:26:18.308Z,0
2016-04-24T03:27:18.279Z,0
2016-04-24T03:28:18.282Z,0
2016-04-24T03:29:18.503Z,0
2016-04-24T03:30:18.240Z,0
2016-04-24T03:31:18.212Z,0
2016-04-24T03:32:18.199Z,0
2016-04-24T03:33:18.185Z,0
2016-04-24T03:34:18.173Z,0
2016-04-24T03:35:18.145Z,0
2016-04-24T03:36:18.131Z,0
2016-04-24T03:37:18.665Z,0
2016-04-24T03:38:18.059Z,0
2016-04-24T03:39:18.108Z,0
2016-04-24T03:40:18.064Z,0
2016-04-24T03:41:18.051Z,0
2016-04-24T03:42:18.053Z,0
2016-04-24T03:43:17.994Z,0
2016-04-24T03:44:17.981Z,4
2016-04-24T03:45:17.968Z,4
2016-04-24T03:46:17.971Z,0
2016-04-24T03:47:17.927Z,4
2016-04-24T03:48:17.913Z,4
2016-04-24T03:49:17.901Z,4
2016-04-24T03:50:17.872Z,4
2016-04-24T03:51:17.859Z,8
2016-04-24T03:52:17.846Z,8
2016-04-24T03:53:18.161Z,8
2016-04-24T03:54:17.804Z,12
2016-04-24T03:55:17.808Z,12
2016-04-24T03:56:17.764Z,16
2016-04-24T03:57:17.750Z,16
2016-04-24T03:58:17.737Z,20
2016-04-24T03:59:17.741Z,24
2016-04-24T04:00:17.711Z,28
2016-04-24T04:01:17.668Z,28
2016-04-24T04:02:17.685Z,36
2016-04-24T04:03:17.673Z,44
2016-04-24T04:04:17.643Z,48
2016-04-24T04:05:17.616Z,56
2016-04-24T04:06:17.603Z,68
2016-04-24T04:07:17.574Z,76
2016-04-24T04:08:17.936Z,88
2016-04-24T04:09:17.548Z,100
2016-04-24T04:10:17.504Z,112
2016-04-24T04:11:17.492Z,124
2016-04-24T04:12:17.478Z,140
2016-04-24T04:13:17.450Z,164
2016-04-24T04:14:17.452Z,192
2016-04-24T04:15:17.424Z,216
2016-04-24T04:16:17.395Z,244
2016-04-24T04:17:17.383Z,272
2016-04-24T04:18:17.369Z,300
2016-04-24T04:19:17.341Z,328
2016-04-24T04:20:17.328Z,356
2016-04-24T04:21:17.315Z,392
2016-04-24T04:22:17.286Z,428
2016-04-24T04:23:17.727Z,464
2016-04-24T04:24:17.244Z,504
2016-04-24T04:25:17.232Z,552
2016-04-24T04:26:17.235Z,588
2016-04-24T04:27:17.206Z,636
2016-04-24T04:28:17.177Z,684
2016-04-24T04:29:17.165Z,736
2016-04-24T04:30:17.152Z,796
2016-04-24T04:31:17.123Z,856
2016-04-24T04:32:17.110Z,924
2016-04-24T04:33:17.113Z,1000
2016-04-24T04:34:17.068Z,1076
2016-04-24T04:35:17.071Z,1160
2016-04-24T04:36:17.043Z,1252
2016-04-24T04:37:17.014Z,1340
2016-04-24T04:38:17.939Z,1436
2016-04-24T04:39:16.973Z,1528
2016-04-24T04:40:16.960Z,1616
2016-04-24T04:41:16.947Z,1704
2016-04-24T04:42:16.934Z,1804
2016-04-24T04:43:16.905Z,1920
2016-04-24T04:44:16.892Z,2060
2016-04-24T04:45:16.879Z,2188
2016-04-24T04:46:16.851Z,2280
2016-04-24T04:47:16.853Z,2364
2016-04-24T04:48:16.825Z,2480
2016-04-24T04:49:16.812Z,2604
2016-04-24T04:50:16.784Z,2704
2016-04-24T04:51:16.770Z,2840
2016-04-24T04:52:16.008Z,3004
2016-04-24T04:53:16.510Z,3252
2016-04-24T04:54:16.716Z,3524
2016-04-24T04:55:16.703Z,3836
2016-04-24T04:56:16.674Z,4172
2016-04-24T04:57:16.646Z,4380
2016-04-24T04:58:16.649Z,4696
2016-04-24T04:59:16.636Z,4960
2016-04-24T05:00:16.638Z,5204
2016-04-24T05:01:16.579Z,5212
2016-04-24T05:02:16.581Z,5320
2016-04-24T05:03:16.569Z,5492
2016-04-24T05:04:16.571Z,5692
2016-04-24T05:05:16.527Z,6068
2016-04-24T05:06:16.498Z,6580
2016-04-24T05:07:16.501Z,6824
2016-04-24T05:08:16.706Z,6780
2016-04-24T05:09:16.366Z,6840
2016-04-24T05:10:16.446Z,7172
2016-04-24T05:11:16.449Z,7340
2016-04-24T05:12:16.420Z,7336
2016-04-24T05:13:16.440Z,7604
2016-04-24T05:14:16.411Z,7644
2016-04-24T05:15:16.398Z,7436
2016-04-24T05:16:16.369Z,7528
2016-04-24T05:17:16.356Z,7800
2016-04-24T05:18:16.342Z,7896
2016-04-24T05:19:16.346Z,7852
2016-04-24T05:20:16.302Z,7444
2016-04-24T05:21:16.304Z,6172
2016-04-24T05:22:16.275Z,5876
2016-04-24T05:23:16.576Z,5772
2016-04-24T05:24:16.125Z,5828
2016-04-24T05:25:16.252Z,6008
2016-04-24T05:26:16.239Z,6272
2016-04-24T05:27:16.210Z,6508
2016-04-24T05:28:16.199Z,6976
2016-04-24T05:29:16.186Z,7580
2016-04-24T05:30:16.172Z,8268
2016-04-24T05:31:16.174Z,8928
2016-04-24T05:32:16.130Z,9336
2016-04-24T05:33:16.118Z,9660
2016-04-24T05:34:16.105Z,9848
2016-04-24T05:35:16.092Z,10740
2016-04-24T05:36:16.079Z,9168
2016-04-24T05:37:16.097Z,9720
2016-04-24T05:38:16.757Z,9300
2016-04-24T05:39:15.946Z,9388
2016-04-24T05:40:16.027Z,9772
2016-04-24T05:41:15.998Z,9732
2016-04-24T05:42:15.987Z,9680
2016-04-24T05:43:16.004Z,9972
2016-04-24T05:44:15.960Z,10520
2016-04-24T05:45:15.931Z,11088
2016-04-24T05:46:15.918Z,11496
2016-04-24T05:47:15.905Z,12112
2016-04-24T05:48:15.893Z,12724
2016-04-24T05:49:15.911Z,13544
2016-04-24T05:50:15.867Z,14548
2016-04-24T05:51:15.869Z,15428
2016-04-24T05:52:15.841Z,16184
2016-04-24T05:53:16.266Z,16160
2016-04-24T05:54:15.675Z,15388
2016-04-24T05:55:15.849Z,14236
2016-04-24T05:56:15.774Z,13880
2016-04-24T05:57:15.776Z,14092
2016-04-24T05:58:15.763Z,15632
2016-04-24T05:59:15.735Z,15512
2016-04-24T06:00:15.738Z,16428
2016-04-24T06:01:15.724Z,16892
2016-04-24T06:02:15.711Z,16548
2016-04-24T06:03:15.699Z,19040
2016-04-24T06:04:15.685Z,22176
2016-04-24T06:05:15.673Z,23840
2016-04-24T06:06:15.660Z,21504
2016-04-24T06:07:15.646Z,18592
2016-04-24T06:08:15.602Z,18088
2016-04-24T06:09:16.480Z,16880
2016-04-24T06:10:15.623Z,16948
2016-04-24T06:11:15.610Z,18752
2016-04-24T06:12:15.582Z,19296
2016-04-24T06:13:15.585Z,19072
2016-04-24T06:14:15.572Z,20704
2016-04-24T06:15:15.559Z,23584
2016-04-24T06:16:15.530Z,19200
2016-04-24T06:17:15.517Z,16980
2016-04-24T06:18:15.504Z,16476
2016-04-24T06:19:15.507Z,15988
2016-04-24T06:20:15.509Z,16028
2016-04-24T06:21:15.497Z,14876
2016-04-24T06:22:15.176Z,13736
2016-04-24T06:23:15.633Z,13304
2016-04-24T06:24:16.433Z,13448
2016-04-24T06:25:15.420Z,14044
2016-04-24T06:26:15.469Z,21568
2016-04-24T06:27:15.409Z,15324
2016-04-24T06:28:15.412Z,27232
2016-04-24T06:29:15.384Z,33632
2016-04-24T06:30:15.370Z,31584
2016-04-24T06:31:15.342Z,16428
2016-04-24T06:32:15.361Z,18792
2016-04-24T06:33:15.333Z,28192
2016-04-24T06:34:15.319Z,33056
2016-04-24T06:35:15.338Z,29984
2016-04-24T06:36:15.293Z,34592
2016-04-24T06:37:15.296Z,34496
2016-04-24T06:38:16.267Z,35104
2016-04-24T06:39:15.942Z,35712
2016-04-24T06:40:15.272Z,28224
2016-04-24T06:41:15.260Z,13204
2016-04-24T06:42:15.246Z,35840
2016-04-24T06:43:15.250Z,32864
2016-04-24T06:44:15.236Z,32992
2016-04-24T06:45:15.240Z,38080
2016-04-24T06:46:15.226Z,36768
2016-04-24T06:47:15.213Z,38688
2016-04-24T06:48:15.215Z,40448
2016-04-24T06:49:15.204Z,42592
2016-04-24T06:50:15.206Z,22432
2016-04-24T06:51:15.193Z,26432
2016-04-24T06:52:15.195Z,34848
2016-04-24T06:53:15.058Z,36128
2016-04-24T06:54:15.670Z,30400
2016-04-24T06:55:15.173Z,39136
2016-04-24T06:56:15.175Z,40992
2016-04-24T06:57:15.162Z,38592
2016-04-24T06:58:15.164Z,35200
2016-04-24T06:59:15.168Z,32864
2016-04-24T07:00:15.139Z,33024
2016-04-24T07:01:15.126Z,36224
2016-04-24T07:02:15.128Z,36320
2016-04-24T07:03:15.116Z,45248
2016-04-24T07:04:15.118Z,27072
2016-04-24T07:05:15.121Z,23968
2016-04-24T07:06:14.952Z,24576
2016-04-24T07:07:15.111Z,29152
2016-04-24T07:08:15.097Z,50688
2016-04-24T07:09:15.085Z,45824
2016-04-24T07:10:15.103Z,42048
2016-04-24T07:11:15.075Z,36224
2016-04-24T07:12:15.062Z,27488
2016-04-24T07:13:15.065Z,36384
2016-04-24T07:14:15.052Z,33504
2016-04-24T07:15:15.038Z,25088
2016-04-24T07:16:15.026Z,18784
2016-04-24T07:17:15.044Z,16740
2016-04-24T07:18:15.015Z,17372
2016-04-24T07:19:15.034Z,19936
2016-04-24T07:20:14.989Z,22816
2016-04-24T07:21:14.977Z,25248
2016-04-24T07:22:14.980Z,33408
2016-04-24T07:23:15.623Z,36448
2016-04-24T07:24:14.640Z,37088
2016-04-24T07:25:14.940Z,36288
2016-04-24T07:26:14.942Z,37920
2016-04-24T07:27:14.931Z,37856
2016-04-24T07:28:14.918Z,36000
2016-04-24T07:29:14.920Z,34944
2016-04-24T07:30:14.891Z,36640
2016-04-24T07:31:14.879Z,34656
2016-04-24T07:32:14.881Z,44128
2016-04-24T07:33:14.869Z,47360
2016-04-24T07:34:14.872Z,36928
2016-04-24T07:35:14.858Z,46240
2016-04-24T07:36:14.845Z,44768
2016-04-24T07:37:14.863Z,35168
2016-04-24T07:38:14.835Z,40640
2016-04-24T07:39:14.947Z,36096
2016-04-24T07:40:14.794Z,27488
2016-04-24T07:41:14.796Z,27776
2016-04-24T07:42:14.768Z,25952
2016-04-24T07:43:14.770Z,21312
2016-04-24T07:44:14.757Z,17840
2016-04-24T07:45:14.744Z,16732
2016-04-24T07:46:14.747Z,16488
2016-04-24T07:47:14.734Z,17188
2016-04-24T07:48:14.721Z,16612
2016-04-24T07:49:14.692Z,14580
2016-04-24T07:50:14.680Z,12828
2016-04-24T07:51:14.682Z,12120
2016-04-24T07:52:14.685Z,10772
2016-04-24T07:53:14.656Z,10844
2016-04-24T07:54:14.503Z,13456
2016-04-24T07:55:14.645Z,16644
2016-04-24T07:56:14.665Z,19204
2016-04-24T07:57:14.621Z,22016
2016-04-24T07:58:14.607Z,24160
2016-04-24T07:59:14.609Z,25920
2016-04-24T08:00:14.581Z,27616
2016-04-24T08:01:14.569Z,30112
2016-04-24T08:02:14.742Z,31424
2016-04-24T08:03:14.559Z,32736
2016-04-24T08:04:14.530Z,37248
2016-04-24T08:05:14.517Z,33408
2016-04-24T08:06:14.503Z,29376
2016-04-24T08:07:14.491Z,35200
2016-04-24T08:08:14.463Z,27488
2016-04-24T08:09:14.622Z,27872
2016-04-24T08:10:14.436Z,30272
2016-04-24T08:11:14.424Z,34368
2016-04-24T08:12:14.441Z,43552
2016-04-24T08:13:14.397Z,49728
2016-04-24T08:14:14.400Z,58880
2016-04-24T08:15:14.372Z,60704
2016-04-24T08:16:14.359Z,41088
2016-04-24T08:17:14.346Z,51392
2016-04-24T08:18:14.332Z,38784
2016-04-24T08:19:13.586Z,51200
2016-04-24T08:20:14.323Z,54304
2016-04-24T08:21:14.294Z,32384
2016-04-24T08:22:14.297Z,26400
2016-04-24T08:23:14.268Z,25632
2016-04-24T08:24:14.411Z,29056
2016-04-24T08:25:14.259Z,34112
2016-04-24T08:26:14.245Z,36640
2016-04-24T08:27:14.232Z,55104
2016-04-24T08:28:14.219Z,43744
2016-04-24T08:29:13.472Z,35648
2016-04-24T08:30:14.193Z,52800
2016-04-24T08:31:14.196Z,37152
2016-04-24T08:32:14.184Z,53664
2016-04-24T08:33:14.155Z,29056
2016-04-24T08:34:14.189Z,24800
2016-04-24T08:35:14.144Z,20832
2016-04-24T08:36:14.147Z,20448
2016-04-24T08:37:14.134Z,22144
2016-04-24T08:38:14.105Z,33408
2016-04-24T08:39:14.092Z,57504
2016-04-24T08:40:14.080Z,76480
2016-04-24T08:41:14.083Z,68224
2016-04-24T08:42:14.085Z,67552
2016-04-24T08:43:14.057Z,67808
2016-04-24T08:44:14.060Z,60256
2016-04-24T08:45:14.030Z,77728
2016-04-24T08:46:14.033Z,60352
2016-04-24T08:47:14.021Z,52800
2016-04-24T08:48:14.007Z,35168
2016-04-24T08:49:14.010Z,37184
2016-04-24T08:50:14.028Z,50208
2016-04-24T08:51:14.000Z,55872
2016-04-24T08:52:14.066Z,63232
2016-04-24T08:53:13.974Z,84352
2016-04-24T08:54:14.617Z,26176
2016-04-24T08:55:13.964Z,25376
2016-04-24T08:56:13.935Z,70624
2016-04-24T08:57:14.031Z,70624
2016-04-24T08:58:13.925Z,50720
2016-04-24T08:59:13.912Z,86208
2016-04-24T09:00:13.915Z,80480
2016-04-24T09:01:13.886Z,32992
2016-04-24T09:02:13.951Z,35392
2016-04-24T09:03:13.876Z,39520
2016-04-24T09:04:13.909Z,93952
2016-04-24T09:05:13.866Z,86752
2016-04-24T09:06:13.853Z,76000
2016-04-24T09:07:13.839Z,82240
2016-04-24T09:08:13.874Z,52480
2016-04-24T09:09:13.720Z,79840
2016-04-24T09:10:13.817Z,33664
2016-04-24T09:11:13.664Z,30432
2016-04-24T09:12:13.806Z,32384
2016-04-24T09:13:13.934Z,34720
2016-04-24T09:14:13.796Z,35776
2016-04-24T09:15:13.783Z,35136
2016-04-24T09:16:14.021Z,33664
2016-04-24T09:17:13.757Z,44672
2016-04-24T09:18:13.760Z,25408
2016-04-24T09:19:13.732Z,24416
2016-04-24T09:20:13.719Z,25472
2016-04-24T09:21:13.565Z,27904
2016-04-24T09:22:13.708Z,31360
2016-04-24T09:23:13.945Z,34880
2016-04-24T09:24:13.448Z,37984
2016-04-24T09:25:13.748Z,42976
2016-04-24T09:26:13.657Z,88704
2016-04-24T09:27:13.659Z,77344
2016-04-24T09:28:13.678Z,54752
2016-04-24T09:29:13.649Z,61728
2016-04-24T09:30:13.714Z,45504
2016-04-24T09:31:13.607Z,54432
2016-04-24T09:32:15.578Z,63200
2016-04-24T09:33:13.598Z,86272
2016-04-24T09:34:13.272Z,91872
2016-04-24T09:35:13.837Z,97728
2016-04-24T09:36:13.575Z,110848
2016-04-24T09:37:13.577Z,116160
2016-04-24T09:38:13.548Z,89152
2016-04-24T09:39:14.113Z,76000
2016-04-24T09:40:13.554Z,48320
2016-04-24T09:41:13.541Z,35008
2016-04-24T09:42:13.716Z,24608
2016-04-24T09:43:13.562Z,18848
2016-04-24T09:44:13.533Z,15272
2016-04-24T09:45:13.536Z,12884
2016-04-24T09:46:13.508Z,11608
2016-04-24T09:47:13.511Z,11672
2016-04-24T09:48:13.497Z,13440
2016-04-24T09:49:13.469Z,17412
2016-04-24T09:50:13.471Z,22304
2016-04-24T09:51:13.458Z,28128
2016-04-24T09:52:13.445Z,36000
2016-04-24T09:53:13.652Z,46240
2016-04-24T09:54:12.576Z,60096
2016-04-24T09:55:13.422Z,65024
2016-04-24T09:56:13.409Z,95264
2016-04-24T09:57:13.396Z,101216
2016-04-24T09:58:13.384Z,107072
2016-04-24T09:59:13.370Z,58400
2016-04-24T10:00:13.373Z,64480
2016-04-24T10:01:13.345Z,62912
2016-04-24T10:02:13.363Z,79072
2016-04-24T10:03:13.334Z,100320
2016-04-24T10:04:13.353Z,118272
2016-04-24T10:05:13.309Z,113888
2016-04-24T10:06:13.311Z,112960
2016-04-24T10:07:13.298Z,112736
2016-04-24T10:08:13.004Z,92672
2016-04-24T10:09:13.789Z,61216
2016-04-24T10:10:13.322Z,53824
2016-04-24T10:11:13.278Z,52704
2016-04-24T10:12:13.265Z,44192
2016-04-24T10:13:13.189Z,36992
2016-04-24T10:14:13.239Z,32512
2016-04-24T10:15:13.242Z,34432
2016-04-24T10:16:13.228Z,42880
2016-04-24T10:17:13.216Z,79328
2016-04-24T10:18:13.219Z,97984
2016-04-24T10:19:13.221Z,89824
2016-04-24T10:20:13.209Z,104128
2016-04-24T10:21:13.242Z,106720
2016-04-24T10:22:13.198Z,113568
2016-04-24T10:23:12.419Z,112992
2016-04-24T10:24:13.703Z,111584
2016-04-24T10:25:13.753Z,107808
2016-04-24T10:26:13.162Z,104480
2016-04-24T10:27:13.149Z,103328
2016-04-24T10:28:13.151Z,88768
2016-04-24T10:29:13.124Z,83232
2016-04-24T10:30:13.126Z,85632
2016-04-24T10:31:13.113Z,76736
2016-04-24T10:32:13.115Z,91168
2016-04-24T10:33:13.103Z,99424
2016-04-24T10:34:13.090Z,97504
2016-04-24T10:35:13.077Z,89952
2016-04-24T10:36:13.080Z,93312
2016-04-24T10:37:13.082Z,107872
2016-04-24T10:38:13.084Z,111040
2016-04-24T10:39:13.165Z,118944
2016-04-24T10:40:13.653Z,120032
2016-04-24T10:41:13.061Z,117376
2016-04-24T10:42:13.048Z,114432
2016-04-24T10:43:13.036Z,110208
2016-04-24T10:44:13.054Z,107520
2016-04-24T10:45:13.026Z,99712
2016-04-24T10:46:13.013Z,90144
2016-04-24T10:47:12.999Z,92192
2016-04-24T10:48:13.003Z,85024
2016-04-24T10:49:13.005Z,88000
2016-04-24T10:50:13.024Z,98848
2016-04-24T10:51:12.980Z,103136
2016-04-24T10:52:12.982Z,102432
2016-04-24T10:53:12.969Z,107456
2016-04-24T10:54:12.847Z,109984
2016-04-24T10:55:12.505Z,113408
2016-04-24T10:56:12.961Z,114368
2016-04-24T10:57:12.949Z,111072
2016-04-24T10:58:12.951Z,110496
2016-04-24T10:59:12.945Z,115488
2016-04-24T11:00:12.988Z,114656
2016-04-24T11:01:13.032Z,111904
2016-04-24T11:02:13.061Z,110592
2016-04-24T11:03:13.089Z,111552
2016-04-24T11:04:13.128Z,114176
2016-04-24T11:05:13.146Z,116832
2016-04-24T11:06:13.164Z,117824
2016-04-24T11:07:13.009Z,117632
2016-04-24T11:08:13.183Z,116480
2016-04-24T11:09:13.199Z,116032
2016-04-24T11:10:13.146Z,116448
2016-04-24T11:11:13.231Z,116800
2016-04-24T11:12:13.177Z,117024
2016-04-24T11:13:13.170Z,117120
2016-04-24T11:14:13.177Z,117344
2016-04-24T11:15:13.166Z,114368
2016-04-24T11:16:13.155Z,113312
2016-04-24T11:17:13.160Z,106496
2016-04-24T11:18:13.165Z,105440
2016-04-24T11:19:13.169Z,99712
2016-04-24T11:20:13.172Z,98080
2016-04-24T11:21:13.159Z,101696
2016-04-24T11:22:13.162Z,100416
2016-04-24T11:23:13.149Z,111872
2016-04-24T11:24:13.262Z,106848
2016-04-24T11:25:13.671Z,79232
2016-04-24T11:26:13.143Z,69280
2016-04-24T11:27:13.147Z,72352
2016-04-24T11:28:13.133Z,71488
2016-04-24T11:29:13.137Z,70272
2016-04-24T11:30:13.140Z,55424
2016-04-24T11:31:13.126Z,42272
2016-04-24T11:32:13.114Z,32896
2016-04-24T11:33:13.116Z,27520
2016-04-24T11:34:13.119Z,22144
2016-04-24T11:35:13.105Z,19840
2016-04-24T11:36:13.124Z,21088
2016-04-24T11:37:13.111Z,23136
2016-04-24T11:38:13.114Z,25920
2016-04-24T11:39:12.944Z,28736
2016-04-24T11:40:13.635Z,30528
2016-04-24T11:41:13.074Z,39360
2016-04-24T11:42:13.062Z,23968
2016-04-24T11:43:13.050Z,86400
2016-04-24T11:44:13.036Z,98304
2016-04-24T11:45:13.038Z,97888
2016-04-24T11:46:13.010Z,14300
2016-04-24T11:47:13.013Z,13320
2016-04-24T11:48:13.016Z,14152
2016-04-24T11:49:13.003Z,104480
2016-04-24T11:50:12.990Z,104544
2016-04-24T11:51:12.993Z,104864
2016-04-24T11:52:12.996Z,103296
2016-04-24T11:53:12.967Z,102208
2016-04-24T11:54:12.970Z,102048
2016-04-24T11:55:13.348Z,101408
2016-04-24T11:56:12.943Z,94144
2016-04-24T11:57:12.946Z,92672
2016-04-24T11:58:12.199Z,100384
2016-04-24T11:59:12.920Z,101376
2016-04-24T12:00:12.939Z,99552
2016-04-24T12:01:12.925Z,100992
2016-04-24T12:02:12.913Z,31360
2016-04-24T12:03:12.900Z,104384
2016-04-24T12:04:12.903Z,114208
2016-04-24T12:05:12.905Z,109728
2016-04-24T12:06:13.111Z,120480
2016-04-24T12:07:12.880Z,85248
2016-04-24T12:08:12.866Z,122944
2016-04-24T12:09:12.869Z,36480
2016-04-24T12:10:13.388Z,30752
2016-04-24T12:11:12.874Z,25376
2016-04-24T12:12:12.877Z,20768
2016-04-24T12:13:12.864Z,16016
2016-04-24T12:14:12.851Z,12584
2016-04-24T12:15:12.838Z,10820
2016-04-24T12:16:12.826Z,9804
2016-04-24T12:17:12.829Z,8772
2016-04-24T12:18:12.831Z,8564
2016-04-24T12:19:12.818Z,8380
2016-04-24T12:20:12.820Z,9052
2016-04-24T12:21:12.807Z,10948
2016-04-24T12:22:12.795Z,11728
2016-04-24T12:23:12.781Z,12336
2016-04-24T12:24:12.769Z,12192
2016-04-24T12:25:11.146Z,13244
2016-04-24T12:26:12.759Z,16128
2016-04-24T12:27:12.746Z,22464
2016-04-24T12:28:12.733Z,29536
2016-04-24T12:29:12.720Z,38976
2016-04-24T12:30:12.707Z,73952
2016-04-24T12:31:12.709Z,135680
2016-04-24T12:32:12.712Z,136160
2016-04-24T12:33:12.684Z,133920
2016-04-24T12:34:12.670Z,125664
2016-04-24T12:35:12.658Z,98720
2016-04-24T12:36:12.645Z,104832
2016-04-24T12:37:12.647Z,80128
2016-04-24T12:38:12.635Z,94336
2016-04-24T12:39:12.638Z,102656
2016-04-24T12:40:13.577Z,99328
2016-04-24T12:41:12.611Z,95968
2016-04-24T12:42:12.599Z,101888
2016-04-24T12:43:12.601Z,96960
2016-04-24T12:44:12.572Z,94944
2016-04-24T12:45:12.560Z,62976
2016-04-24T12:46:12.547Z,65184
2016-04-24T12:47:12.535Z,80512
2016-04-24T12:48:12.583Z,107424
2016-04-24T12:49:12.570Z,111136
2016-04-24T12:50:12.543Z,111520
2016-04-24T12:51:12.529Z,56160
2016-04-24T12:52:12.516Z,25632
2016-04-24T12:53:12.504Z,17840
2016-04-24T12:54:12.499Z,13700
2016-04-24T12:55:12.221Z,11116
2016-04-24T12:56:12.473Z,9028
2016-04-24T12:57:12.477Z,7416
2016-04-24T12:58:12.479Z,7156
2016-04-24T12:59:12.450Z,7912
2016-04-24T13:00:12.468Z,9308
2016-04-24T13:01:12.424Z,12240
2016-04-24T13:02:12.427Z,17324
2016-04-24T13:03:12.414Z,22752
2016-04-24T13:04:12.401Z,28672
2016-04-24T13:05:12.388Z,38784
2016-04-24T13:06:12.375Z,57056
2016-04-24T13:07:12.362Z,41376
2016-04-24T13:08:12.349Z,72032
2016-04-24T13:09:12.336Z,114080
2016-04-24T13:10:12.230Z,105152
2016-04-24T13:11:12.326Z,66848
2016-04-24T13:12:12.329Z,54880
2016-04-24T13:13:12.300Z,46144
2016-04-24T13:14:12.287Z,45376
2016-04-24T13:15:12.274Z,46016
2016-04-24T13:16:12.261Z,40800
2016-04-24T13:17:12.264Z,38240
2016-04-24T13:18:12.251Z,35168
2016-04-24T13:19:12.238Z,32480
2016-04-24T13:20:12.225Z,33248
2016-04-24T13:21:12.212Z,36992
2016-04-24T13:22:12.200Z,45760
2016-04-24T13:23:12.186Z,37760
2016-04-24T13:24:12.174Z,33280
2016-04-24T13:25:12.880Z,33440